Time;durP1;ratioP1;P1;durP2;ratioP2;P2;SDS_P1;SDS_P2;PMS_P1;PMS_P2;Temp;Humidity;BMP_temperature;BMP_pressure;BME280_temperature;BME280_humidity;BME280_pressure;Samples;Min_cycle;Max_cycle;Signal;HPM_P1;HPM_P2
2021/05/10 00:02:02;;;;;;;4.20;2.20;;;;;;;5.47;71.04;96279.53;1817758;79;20388;-62
2021/05/10 00:04:39;;;;;;;2.80;1.70;;;;;;;5.50;70.82;96271.30;1780358;79;23007;-63
2021/05/10 00:07:16;;;;;;;3.90;2.00;;;;;;;5.53;71.11;96275.70;1780675;79;23072;-62
2021/05/10 00:09:54;;;;;;;2.70;1.47;;;;;;;5.35;71.24;96272.43;1820096;79;22791;-62
2021/05/10 00:12:31;;;;;;;3.63;1.97;;;;;;;5.28;72.41;96270.59;1824338;77;23304;-63
2021/05/10 00:15:11;;;;;;;3.77;2.60;;;;;;;5.26;71.47;96267.07;1833145;76;38672;-63
2021/05/10 00:17:49;;;;;;;2.20;1.77;;;;;;;5.47;70.63;96268.66;1780532;79;23018;-62
2021/05/10 00:20:25;;;;;;;4.53;2.10;;;;;;;5.31;71.50;96270.19;1820102;79;22784;-62
2021/05/10 00:23:04;;;;;;;2.33;2.00;;;;;;;5.17;71.17;96267.84;1817736;79;22636;-63
2021/05/10 00:25:42;;;;;;;3.60;1.90;;;;;;;5.07;71.57;96272.50;1824404;77;22870;-63
2021/05/10 00:28:20;;;;;;;3.23;1.73;;;;;;;4.91;71.26;96267.47;1824356;77;22876;-62
2021/05/10 00:30:57;;;;;;;3.80;2.60;;;;;;;4.89;72.66;96264.85;1801984;79;28389;-63
2021/05/10 00:33:34;;;;;;;2.57;1.90;;;;;;;5.07;71.27;96275.99;1824414;77;22858;-63
2021/05/10 00:36:12;;;;;;;2.47;2.00;;;;;;;4.86;71.27;96273.06;1850741;77;23438;-62
2021/05/10 00:38:49;;;;;;;4.00;2.10;;;;;;;4.83;71.96;96273.02;1847838;77;22614;-62
2021/05/10 00:41:26;;;;;;;2.13;1.70;;;;;;;4.84;72.01;96263.91;1824351;77;23308;-62
2021/05/10 00:44:06;;;;;;;2.20;1.70;;;;;;;4.81;72.53;96265.58;1824327;77;23307;-62
2021/05/10 00:46:44;;;;;;;4.40;2.00;;;;;;;4.85;72.03;96267.39;1780639;79;23026;-62
2021/05/10 00:49:21;;;;;;;4.50;1.80;;;;;;;4.87;72.33;96264.38;1780603;79;23495;-62
2021/05/10 00:51:58;;;;;;;2.97;1.70;;;;;;;4.91;72.25;96253.98;1817674;79;22640;-62
2021/05/10 00:54:35;;;;;;;2.92;1.90;;;;;;;4.93;72.07;96248.33;1833297;76;27898;-62
2021/05/10 00:57:13;;;;;;;1.77;1.43;;;;;;;5.14;72.25;96250.37;1820209;79;22797;-62
2021/05/10 00:59:52;;;;;;;1.70;1.50;;;;;;;5.01;72.04;96260.20;1780661;79;23015;-62
2021/05/10 01:02:29;;;;;;;3.10;1.90;;;;;;;5.01;72.34;96250.17;1780697;79;23019;-62
2021/05/10 01:05:10;;;;;;;1.97;1.70;;;;;;;4.89;72.68;96257.00;1820091;79;22795;-63
2021/05/10 01:07:47;;;;;;;1.77;1.50;;;;;;;4.88;72.33;96258.28;1792065;79;23339;-63
2021/05/10 01:10:26;;;;;;;1.73;1.37;;;;;;;4.93;72.84;96256.17;1824411;77;23307;-62
2021/05/10 01:13:04;;;;;;;2.07;1.57;;;;;;;4.85;73.25;96255.20;1780625;79;23015;-62
2021/05/10 01:15:41;;;;;;;4.40;2.40;;;;;;;4.71;73.16;96251.09;1804525;79;28374;-62
2021/05/10 01:18:20;;;;;;;3.90;2.10;;;;;;;4.91;72.18;96259.22;1824359;77;23327;-63
2021/05/10 01:21:00;;;;;;;2.87;1.60;;;;;;;4.80;71.90;96255.56;1819931;79;23243;-62
2021/05/10 01:23:37;;;;;;;1.77;1.60;;;;;;;4.72;72.49;96250.22;1850738;77;23448;-63
2021/05/10 01:26:15;;;;;;;2.97;1.80;;;;;;;4.62;72.14;96254.86;1820215;79;23432;-62
2021/05/10 01:28:53;;;;;;;3.63;1.60;;;;;;;4.56;72.42;96248.22;1780645;79;23040;-62
2021/05/10 01:31:31;;;;;;;1.80;1.53;;;;;;;4.49;72.89;96247.27;1890010;76;23276;-63
2021/05/10 01:34:08;;;;;;;1.80;1.20;;;;;;;4.41;72.46;96254.52;1780519;79;23471;-62
2021/05/10 01:36:45;;;;;;;3.05;2.45;;;;;;;4.29;74.04;96244.34;1804515;79;27932;-62
2021/05/10 01:39:23;;;;;;;3.50;2.00;;;;;;;4.43;73.88;96247.59;1780661;79;23476;-62
2021/05/10 01:42:00;;;;;;;2.33;1.83;;;;;;;4.33;73.27;96251.38;1849048;76;22180;-62
2021/05/10 01:44:37;;;;;;;1.53;1.30;;;;;;;4.29;74.00;96252.17;1849168;76;21542;-62
2021/05/10 01:47:14;;;;;;;1.97;1.30;;;;;;;4.22;73.80;96254.23;1780673;79;23478;-63
2021/05/10 01:49:52;;;;;;;1.87;1.47;;;;;;;4.12;74.02;96256.23;1780478;79;23018;-63
2021/05/10 01:52:29;;;;;;;2.43;1.43;;;;;;;4.00;73.89;96255.59;1849062;76;21223;-62
2021/05/10 01:55:09;;;;;;;2.00;1.80;;;;;;;4.02;75.09;96249.10;1780620;79;23029;-62
2021/05/10 01:57:52;;;;;;;2.40;1.53;;;;;;;3.95;76.08;96245.49;1820199;79;23263;-62
2021/05/10 02:00:44;;;;;;;1.20;1.00;;;;;;;3.95;75.91;96253.77;1824377;77;22853;-62
2021/05/10 02:03:23;;;;;;;3.20;1.73;;;;;;;3.95;75.76;96245.92;1780545;79;23049;-63
2021/05/10 02:06:06;;;;;;;2.20;1.50;;;;;;;3.92;76.22;96241.97;1824199;77;22871;-62
2021/05/10 02:08:45;;;;;;;1.93;1.40;;;;;;;3.96;75.84;96249.02;1780584;79;23527;-63
2021/05/10 02:11:28;;;;;;;2.47;1.67;;;;;;;3.93;75.71;96247.62;1820149;79;22905;-62
2021/05/10 02:14:05;;;;;;;2.23;1.40;;;;;;;4.02;75.51;96245.19;1780673;79;23044;-63
2021/05/10 02:16:42;;;;;;;1.73;1.40;;;;;;;4.12;75.86;96248.41;1820184;79;22938;-63
2021/05/10 02:19:19;;;;;;;3.50;1.10;;;;;;;4.08;76.18;96244.88;1817629;79;21547;-62
2021/05/10 02:21:56;;;;;;;1.50;1.10;;;;;;;4.02;76.04;96239.53;1824350;77;23316;-62
2021/05/10 02:24:37;;;;;;;4.13;1.40;;;;;;;4.06;76.00;96241.78;1780530;79;23014;-63
2021/05/10 02:27:14;;;;;;;1.70;1.60;;;;;;;4.10;75.56;96234.00;1780745;79;23010;-62
2021/05/10 02:29:51;;;;;;;3.40;1.40;;;;;;;4.19;75.47;96232.42;1833164;76;38842;-63
2021/05/10 02:32:28;;;;;;;2.53;1.37;;;;;;;4.40;75.01;96231.44;1780605;79;22924;-63
2021/05/10 02:35:07;;;;;;;2.27;1.60;;;;;;;4.33;74.66;96233.50;1780591;79;23521;-63
2021/05/10 02:37:45;;;;;;;2.83;1.53;;;;;;;4.33;74.36;96237.02;1780568;79;23021;-62
2021/05/10 02:40:29;;;;;;;2.70;1.30;;;;;;;4.23;74.33;96240.73;1824388;77;23313;-62
2021/05/10 02:43:09;;;;;;;1.40;0.70;;;;;;;4.11;73.90;96241.00;1870348;76;22876;-63
2021/05/10 02:45:50;;;;;;;1.90;1.07;;;;;;;3.99;74.30;96239.92;1780581;79;23018;-62
2021/05/10 02:48:33;;;;;;;1.40;1.30;;;;;;;3.81;74.82;96241.35;1820243;79;22910;-63
2021/05/10 02:51:11;;;;;;;2.00;1.50;;;;;;;3.74;76.28;96253.83;1780410;79;23068;-62
2021/05/10 02:53:48;;;;;;;1.37;1.27;;;;;;;3.65;76.82;96259.77;1824404;77;23327;-62
2021/05/10 02:56:26;;;;;;;1.50;1.40;;;;;;;3.64;76.34;96258.00;1824355;77;23003;-62
2021/05/10 02:59:05;;;;;;;3.00;1.20;;;;;;;3.66;75.60;96252.81;1870452;76;22888;-63
2021/05/10 03:01:41;;;;;;;3.67;1.37;;;;;;;3.63;76.39;96252.77;1849235;76;22180;-63
2021/05/10 03:04:19;;;;;;;1.87;1.57;;;;;;;3.60;76.71;96250.08;1817733;79;21534;-64
2021/05/10 03:06:56;;;;;;;2.60;1.60;;;;;;;3.63;76.89;96247.55;1820165;79;23243;-62
2021/05/10 03:09:33;;;;;;;1.50;1.23;;;;;;;3.62;76.30;96250.98;1820198;79;23383;-62
2021/05/10 03:12:10;;;;;;;2.30;2.10;;;;;;;3.55;76.87;96247.38;1833226;76;38210;-62
2021/05/10 03:14:49;;;;;;;1.43;1.33;;;;;;;3.78;75.67;96236.48;1780678;79;23018;-62
2021/05/10 03:17:26;;;;;;;3.77;1.60;;;;;;;3.67;76.22;96250.65;1817758;79;22212;-62
2021/05/10 03:20:08;;;;;;;1.80;1.27;;;;;;;3.66;75.90;96248.91;1850571;77;23008;-63
2021/05/10 03:22:45;;;;;;;2.27;1.80;;;;;;;3.68;75.96;96254.61;1820215;79;22947;-63
2021/05/10 03:25:22;;;;;;;1.60;1.23;;;;;;;3.64;76.24;96251.47;1817731;79;22640;-62
2021/05/10 03:28:00;;;;;;;3.03;1.27;;;;;;;3.64;77.05;96252.78;1824216;77;23320;-62
2021/05/10 03:30:37;;;;;;;1.83;1.30;;;;;;;3.53;77.37;96259.54;1780688;79;23478;-62
2021/05/10 03:33:14;;;;;;;1.57;1.13;;;;;;;3.63;77.35;96257.98;1780524;79;23033;-62
2021/05/10 03:35:51;;;;;;;2.00;0.93;;;;;;;3.64;77.53;96259.73;1820133;79;21109;-62
2021/05/10 03:38:34;;;;;;;1.63;1.27;;;;;;;3.66;77.98;96258.91;1824312;77;23311;-62
2021/05/10 03:41:11;;;;;;;1.83;1.20;;;;;;;3.71;78.43;96259.44;1848918;76;22169;-61
2021/05/10 03:43:51;;;;;;;1.20;0.80;;;;;;;3.79;78.31;96259.14;1860715;76;22865;-62
2021/05/10 03:46:29;;;;;;;4.13;1.20;;;;;;;3.90;78.58;96261.07;1820232;79;23241;-62
2021/05/10 03:49:06;;;;;;;1.93;1.27;;;;;;;4.00;78.88;96250.80;1824250;77;23303;-62
2021/05/10 03:51:43;;;;;;;1.67;1.30;;;;;;;4.04;79.79;96252.63;1801849;79;28348;-62
2021/05/10 03:54:20;;;;;;;3.07;1.70;;;;;;;4.37;78.57;96250.98;1780497;79;23478;-62
2021/05/10 03:56:59;;;;;;;3.35;2.65;;;;;;;4.51;78.08;96255.11;1804509;79;28373;-63
2021/05/10 03:59:42;;;;;;;3.30;2.03;;;;;;;4.82;77.12;96248.63;1820349;79;23476;-62
2021/05/10 04:02:19;;;;;;;20.88;11.68;;;;;;;4.86;77.00;96256.94;1833125;76;28326;-63
2021/05/10 04:16:08;;;;;;;5.78;3.85;;;;;;;5.76;73.36;96248.02;1832937;76;28361;-62
2021/05/10 04:18:45;;;;;;;6.57;2.67;;;;;;;6.02;72.59;96250.95;1820334;79;23278;-62
2021/05/10 04:21:23;;;;;;;3.73;2.70;;;;;;;5.92;72.61;96246.46;1817656;79;22194;-63
2021/05/10 04:24:00;;;;;;;3.83;2.50;;;;;;;5.95;72.55;96246.95;1780712;79;23033;-63
2021/05/10 04:26:38;;;;;;;3.43;2.40;;;;;;;5.96;73.19;96253.50;1780757;79;23018;-63
2021/05/10 04:29:15;;;;;;;3.37;2.10;;;;;;;6.03;72.73;96254.02;1870368;76;23592;-63
2021/05/10 04:31:57;;;;;;;2.00;1.73;;;;;;;6.09;72.06;96252.31;1804426;79;22878;-62
2021/05/10 04:34:34;;;;;;;4.47;2.60;;;;;;;6.15;72.11;96245.40;1817848;79;20138;-63
2021/05/10 04:37:12;;;;;;;6.63;3.63;;;;;;;6.25;72.60;96247.67;1780514;79;23036;-63
2021/05/10 04:39:50;;;;;;;10.67;5.20;;;;;;;6.37;72.58;96252.12;1780605;79;22957;-63
2021/05/10 04:42:27;;;;;;;7.70;4.00;;;;;;;6.47;72.08;96250.89;1870513;76;22856;-62
2021/05/10 04:45:07;;;;;;;6.07;4.00;;;;;;;6.60;71.92;96254.91;1774845;79;23080;-62
2021/05/10 04:47:46;;;;;;;6.77;3.80;;;;;;;6.70;71.72;96258.95;1780635;79;23035;-62
2021/05/10 04:50:24;;;;;;;6.40;3.47;;;;;;;6.81;71.32;96257.70;1780285;79;23482;-63
2021/05/10 04:53:01;;;;;;;3.47;2.57;;;;;;;6.95;71.11;96253.84;1780619;79;23489;-63
2021/05/10 04:55:40;;;;;;;3.50;2.70;;;;;;;7.10;70.81;96252.61;1780622;79;23491;-62
2021/05/10 04:58:17;;;;;;;3.13;2.30;;;;;;;7.26;70.49;96250.09;1780459;79;23085;-63
2021/05/10 05:00:54;;;;;;;3.33;1.67;;;;;;;7.40;69.55;96242.27;1820174;79;22190;-63
2021/05/10 05:03:31;;;;;;;5.27;2.33;;;;;;;7.54;68.72;96245.83;1824350;77;23305;-62
2021/05/10 05:06:09;;;;;;;4.37;2.30;;;;;;;7.67;68.12;96237.11;1870158;76;22839;-64
2021/05/10 05:08:46;;;;;;;2.80;2.23;;;;;;;7.80;68.14;96236.27;1780675;79;23502;-62
2021/05/10 05:11:24;;;;;;;2.27;2.00;;;;;;;7.98;68.18;96230.17;1820046;79;22816;-67
2021/05/10 05:14:04;;;;;;;4.67;3.57;;;;;;;8.15;67.79;96225.39;1780668;79;23019;-65
2021/05/10 05:16:41;;;;;;;3.70;2.57;;;;;;;8.33;67.50;96231.96;1780683;79;23042;-64
2021/05/10 05:19:18;;;;;;;2.77;2.17;;;;;;;8.50;67.38;96225.43;1850649;77;22877;-64
2021/05/10 05:22:01;;;;;;;2.87;2.50;;;;;;;8.69;67.04;96231.98;1824204;77;23014;-65
2021/05/10 05:24:39;;;;;;;2.97;2.50;;;;;;;8.86;66.41;96229.77;1780669;79;23518;-64
2021/05/10 05:27:18;;;;;;;2.70;2.30;;;;;;;9.04;65.80;96236.74;1824198;77;22888;-66
2021/05/10 05:29:55;;;;;;;2.40;1.90;;;;;;;9.19;65.52;96234.52;1817735;79;21547;-64
2021/05/10 05:32:32;;;;;;;3.33;2.00;;;;;;;9.37;65.07;96230.06;1780526;79;23033;-66
2021/05/10 05:35:13;;;;;;;5.60;2.90;;;;;;;9.52;64.28;96224.32;1780679;79;23011;-67
2021/05/10 05:37:50;;;;;;;7.53;3.13;;;;;;;9.72;64.08;96223.33;1820150;79;22911;-61
2021/05/10 05:40:27;;;;;;;4.10;2.40;;;;;;;9.89;62.82;96225.88;1820102;79;22190;-63
2021/05/10 05:43:10;;;;;;;3.93;2.20;;;;;;;10.05;62.68;96229.29;1780663;79;23022;-63
2021/05/10 05:45:47;;;;;;;5.50;2.53;;;;;;;10.19;61.63;96228.31;1780686;79;23051;-62
2021/05/10 05:48:24;;;;;;;6.10;2.13;;;;;;;10.36;60.50;96230.88;1792022;79;23361;-62
2021/05/10 05:51:02;;;;;;;3.13;1.90;;;;;;;10.55;60.92;96232.91;1780573;79;23051;-62
2021/05/10 05:53:40;;;;;;;2.37;2.10;;;;;;;10.71;59.81;96228.81;1824161;77;23299;-60
2021/05/10 05:56:17;;;;;;;2.40;1.63;;;;;;;10.87;59.45;96230.44;1780629;79;23018;-62
2021/05/10 05:58:54;;;;;;;4.70;1.50;;;;;;;11.05;59.83;96234.20;1780648;79;23074;-64
2021/05/10 06:01:31;;;;;;;2.03;1.83;;;;;;;11.23;59.45;96234.91;1791869;79;23348;-64
2021/05/10 06:04:08;;;;;;;1.57;1.47;;;;;;;11.37;59.18;96221.10;1847957;77;22180;-64
2021/05/10 06:06:45;;;;;;;3.60;1.80;;;;;;;11.50;59.24;96217.00;1817439;79;22194;-64
2021/05/10 06:09:25;;;;;;;2.10;1.43;;;;;;;11.63;56.79;96217.27;1780499;79;23026;-64
2021/05/10 06:12:04;;;;;;;1.83;1.43;;;;;;;11.71;56.82;96212.75;1780680;79;23486;-63
2021/05/10 06:14:41;;;;;;;3.03;1.40;;;;;;;11.81;57.81;96222.76;1780659;79;23502;-63
2021/05/10 06:17:18;;;;;;;2.13;1.50;;;;;;;11.89;57.04;96221.81;1780708;79;23486;-61
2021/05/10 06:19:56;;;;;;;2.47;1.80;;;;;;;11.95;55.00;96211.59;1832148;77;28324;-64
2021/05/10 06:22:33;;;;;;;2.90;1.63;;;;;;;12.21;55.44;96201.94;1819923;79;22529;-63
2021/05/10 06:25:14;;;;;;;2.17;1.80;;;;;;;12.31;54.94;96209.28;1780633;79;23464;-61
2021/05/10 06:27:52;;;;;;;3.03;1.90;;;;;;;12.43;55.22;96201.16;1780676;79;23045;-64
2021/05/10 06:30:30;;;;;;;2.60;1.90;;;;;;;12.54;55.08;96200.52;1820132;79;22972;-64
2021/05/10 06:33:08;;;;;;;3.50;1.60;;;;;;;12.67;54.67;96200.31;1824345;77;23036;-62
2021/05/10 06:35:45;;;;;;;1.83;1.47;;;;;;;12.78;53.53;96198.37;1780429;79;23467;-60
2021/05/10 06:38:22;;;;;;;3.25;2.10;;;;;;;12.86;51.79;96192.94;1833189;76;28328;-64
2021/05/10 06:41:02;;;;;;;3.63;2.37;;;;;;;13.15;52.13;96184.01;1780666;79;23022;-62
2021/05/10 06:43:39;;;;;;;4.97;2.73;;;;;;;13.20;51.15;96185.22;1780503;79;23457;-61
2021/05/10 06:46:17;;;;;;;2.93;2.30;;;;;;;13.25;50.96;96184.67;1780653;79;23061;-62
2021/05/10 06:48:54;;;;;;;4.30;2.17;;;;;;;13.32;50.37;96186.34;1817742;79;22194;-63
2021/05/10 06:51:33;;;;;;;3.17;2.50;;;;;;;13.40;50.33;96188.83;1779451;79;23019;-60
2021/05/10 06:54:10;;;;;;;4.00;2.17;;;;;;;13.51;51.17;96189.51;1780706;79;23029;-66
2021/05/10 06:56:47;;;;;;;3.47;2.40;;;;;;;13.67;51.12;96186.53;1799782;79;28046;-61
2021/05/10 06:59:25;;;;;;;3.53;2.20;;;;;;;13.98;50.64;96189.37;1780675;79;23481;-61
2021/05/10 07:02:02;;;;;;;3.70;2.40;;;;;;;14.05;50.41;96190.99;1817724;79;22804;-61
2021/05/10 07:04:39;;;;;;;4.27;2.07;;;;;;;14.13;48.47;96191.68;1820036;79;23689;-61
2021/05/10 07:07:16;;;;;;;10.20;6.70;;;;;;;14.25;48.31;96191.40;1780529;79;23021;-60
2021/05/10 07:09:53;;;;;;;8.73;3.27;;;;;;;14.32;44.93;96188.16;1849224;76;22622;-60
2021/05/10 07:12:31;;;;;;;6.77;2.30;;;;;;;14.41;47.69;96187.05;1780528;79;23035;-61
2021/05/10 07:15:11;;;;;;;2.60;2.07;;;;;;;14.52;46.25;96189.01;1824305;77;22871;-63
2021/05/10 07:17:47;;;;;;;2.80;1.83;;;;;;;14.66;47.02;96188.22;1780547;79;23019;-62
2021/05/10 07:20:25;;;;;;;4.43;2.80;;;;;;;14.79;45.22;96185.25;1820224;79;23428;-60
2021/05/10 07:23:04;;;;;;;3.53;2.23;;;;;;;14.84;44.74;96184.68;1780568;79;23035;-61
2021/05/10 07:25:48;;;;;;;4.00;2.00;;;;;;;14.98;47.52;96189.19;1870325;76;22869;-61
2021/05/10 07:28:26;;;;;;;2.73;1.90;;;;;;;15.06;47.59;96187.66;1780657;79;23501;-62
2021/05/10 07:31:03;;;;;;;3.50;2.20;;;;;;;15.21;47.15;96180.59;1820202;79;23296;-61
2021/05/10 07:33:41;;;;;;;2.20;2.00;;;;;;;15.36;47.10;96181.49;1824287;77;23317;-61
2021/05/10 07:36:18;;;;;;;3.00;1.63;;;;;;;15.49;46.50;96177.16;1780548;79;23050;-62
2021/05/10 07:38:55;;;;;;;3.37;1.90;;;;;;;15.54;44.45;96180.09;1817591;79;21547;-61
2021/05/10 07:41:33;;;;;;;3.20;1.97;;;;;;;15.67;44.99;96180.61;1780644;79;23479;-64
2021/05/10 07:44:11;;;;;;;2.37;1.87;;;;;;;15.80;45.78;96178.52;1780615;79;22708;-61
2021/05/10 07:46:48;;;;;;;3.20;1.70;;;;;;;15.92;44.12;96177.27;1780523;79;23022;-62
2021/05/10 07:49:26;;;;;;;3.20;1.90;;;;;;;16.05;46.01;96183.08;1850710;77;23340;-63
2021/05/10 07:52:04;;;;;;;2.37;1.60;;;;;;;16.15;45.27;96185.88;1780548;79;23473;-62
2021/05/10 07:54:42;;;;;;;2.70;1.83;;;;;;;16.18;44.36;96185.34;1889900;76;23320;-61
2021/05/10 07:57:19;;;;;;;3.30;1.77;;;;;;;16.27;45.28;96176.17;1850709;77;22858;-63
2021/05/10 07:59:57;;;;;;;3.67;2.07;;;;;;;16.41;45.59;96173.95;1824199;77;22873;-62
2021/05/10 08:02:37;;;;;;;2.27;1.70;;;;;;;16.53;46.00;96176.69;1850715;77;22866;-62
2021/05/10 08:05:15;;;;;;;4.00;2.13;;;;;;;16.70;45.98;96172.58;1824349;77;23021;-63
2021/05/10 08:07:52;;;;;;;2.53;1.70;;;;;;;16.83;45.47;96173.49;1780569;79;23068;-60
2021/05/10 08:10:30;;;;;;;2.47;1.50;;;;;;;16.96;43.44;96172.61;1824396;77;23311;-64
2021/05/10 08:13:08;;;;;;;2.87;1.40;;;;;;;17.02;43.70;96164.39;1889966;76;23282;-64
2021/05/10 08:16:05;;;;;;;1.60;1.30;;;;;;;17.14;44.52;96160.90;1809213;78;22850;-61
2021/05/10 08:18:43;;;;;;;1.77;1.40;;;;;;;17.27;44.14;96164.39;1824365;77;22996;-62
2021/05/10 08:21:21;;;;;;;1.97;1.33;;;;;;;17.40;44.10;96162.15;1780339;79;23028;-62
2021/05/10 08:23:58;;;;;;;2.73;1.43;;;;;;;17.56;43.62;96161.58;1824388;77;22853;-60
2021/05/10 08:26:56;;;;;;;2.77;1.53;;;;;;;17.66;40.06;96153.17;1933284;74;22328;-60
2021/05/10 08:29:34;;;;;;;2.80;1.47;;;;;;;17.69;40.80;96153.08;1780610;79;23493;-61
2021/05/10 08:32:12;;;;;;;2.33;1.30;;;;;;;17.71;38.26;96151.23;1780696;79;23036;-60
2021/05/10 08:34:49;;;;;;;4.35;1.35;;;;;;;17.89;41.23;96151.46;1849879;77;21299;-59
2021/05/10 08:37:28;;;;;;;3.15;1.60;;;;;;;18.09;40.06;96146.69;1914028;74;27808;-61
2021/05/10 08:40:08;;;;;;;2.90;1.67;;;;;;;18.39;39.77;96152.60;1780669;79;23464;-59
2021/05/10 08:42:45;;;;;;;1.67;1.50;;;;;;;18.46;37.15;96139.88;1780583;79;23452;-60
2021/05/10 08:45:24;;;;;;;4.20;1.37;;;;;;;18.58;35.84;96142.91;1870486;76;22837;-59
2021/05/10 08:48:05;;;;;;;3.00;1.37;;;;;;;18.70;38.59;96149.56;1870510;76;22843;-60
2021/05/10 08:50:42;;;;;;;2.65;1.37;;;;;;;18.81;36.91;96135.77;1819999;79;22796;-61
2021/05/10 08:53:38;;;;;;;1.95;1.30;;;;;;;18.92;38.20;96144.66;1849068;76;22318;-60
2021/05/10 08:56:17;;;;;;;1.50;1.25;;;;;;;19.00;36.17;96134.05;1779985;79;23461;-60
2021/05/10 08:58:56;;;;;;;3.65;1.37;;;;;;;19.13;35.69;96129.51;1780691;79;23033;-61
2021/05/10 09:01:53;;;;;;;2.37;1.20;;;;;;;19.20;37.59;96125.60;1824363;77;22982;-62
2021/05/10 09:04:42;;;;;;;2.40;1.22;;;;;;;19.35;34.44;96128.06;1833309;76;27862;-62
2021/05/10 09:07:26;;;;;;;2.10;1.20;;;;;;;19.44;34.21;96120.97;1780524;79;23023;-61
2021/05/10 09:10:07;;;;;;;3.80;1.20;;;;;;;19.55;35.25;96121.81;1889847;76;23290;-61
2021/05/10 09:12:51;;;;;;;1.65;1.22;;;;;;;19.63;33.48;96118.31;1780684;79;23007;-61
2021/05/10 09:15:32;;;;;;;4.15;1.62;;;;;;;19.84;35.08;96116.03;1780672;79;23032;-62
2021/05/10 09:18:10;;;;;;;3.72;1.50;;;;;;;19.93;33.84;96115.19;1780609;79;23010;-61
2021/05/10 09:20:47;;;;;;;3.65;1.40;;;;;;;20.16;37.02;96116.77;1780704;79;23485;-61
2021/05/10 09:23:28;;;;;;;2.87;1.50;;;;;;;20.27;34.95;96114.45;1802071;79;28327;-61
2021/05/10 09:26:05;;;;;;;3.12;1.52;;;;;;;20.56;36.54;96103.65;1820226;79;22910;-61
2021/05/10 09:28:44;;;;;;;1.77;1.30;;;;;;;20.65;33.73;96100.52;1820174;79;23257;-61
2021/05/10 09:31:21;;;;;;;3.45;1.60;;;;;;;20.72;33.98;96099.27;1824189;77;22853;-61
2021/05/10 09:34:02;;;;;;;3.12;1.40;;;;;;;20.85;36.74;96100.85;1870605;76;22850;-61
2021/05/10 09:36:40;;;;;;;8.05;1.52;;;;;;;20.90;35.43;96096.59;1824320;77;22887;-61
2021/05/10 09:39:30;;;;;;;2.10;1.52;;;;;;;20.94;33.86;96089.66;1780565;79;23014;-61
2021/05/10 09:42:09;;;;;;;2.75;1.30;;;;;;;20.99;33.91;96085.84;1780681;79;23065;-62
2021/05/10 09:44:45;;;;;;;4.97;1.60;;;;;;;21.10;32.58;96086.17;1833179;76;27901;-62
2021/05/10 09:47:32;;;;;;;2.42;1.22;;;;;;;21.44;34.21;96079.03;1780676;79;23460;-61
2021/05/10 09:50:03;;;;;;;3.05;1.40;;;;;;;21.62;33.48;96080.75;1850733;77;23321;-62
2021/05/10 09:52:40;;;;;;;1.72;1.55;;;;;;;21.68;34.41;96084.42;1819985;79;22797;-62
2021/05/10 09:55:17;;;;;;;3.92;1.70;;;;;;;21.69;34.54;96082.59;1817726;79;22670;-61
2021/05/10 09:57:56;;;;;;;2.50;1.40;;;;;;;21.81;34.28;96081.92;1870504;76;22837;-61
2021/05/10 10:00:35;;;;;;;2.90;1.60;;;;;;;21.95;35.02;96073.98;1780591;79;23040;-61
2021/05/10 10:03:35;;;;;;;4.85;1.90;;;;;;;22.03;32.57;96074.41;1780616;79;23489;-62
2021/05/10 10:06:18;;;;;;;3.75;1.80;;;;;;;22.12;31.98;96074.83;1850618;77;22850;-61
2021/05/10 10:08:56;;;;;;;4.50;1.90;;;;;;;21.99;34.48;96068.80;1820021;79;23408;-61
2021/05/10 10:11:35;;;;;;;3.77;1.80;;;;;;;22.10;32.79;96068.22;1780632;79;22907;-62
2021/05/10 10:14:14;;;;;;;4.58;1.80;;;;;;;22.13;33.18;96065.83;1824152;77;22893;-62
2021/05/10 10:16:53;;;;;;;4.08;2.08;;;;;;;22.31;34.60;96062.59;1780699;79;23481;-61
2021/05/10 10:19:31;;;;;;;5.15;2.00;;;;;;;22.33;29.75;96062.04;1780658;79;23465;-61
2021/05/10 10:22:09;;;;;;;6.78;2.70;;;;;;;22.41;33.99;96067.34;1780635;79;23018;-62
2021/05/10 10:24:49;;;;;;;3.42;1.80;;;;;;;22.55;32.35;96053.56;1780627;79;23065;-61
2021/05/10 10:27:29;;;;;;;2.30;1.65;;;;;;;22.71;33.28;96048.17;1780529;79;22702;-62
2021/05/10 10:30:09;;;;;;;2.50;1.55;;;;;;;22.83;32.97;96054.13;1780675;79;23476;-61
2021/05/10 10:32:48;;;;;;;4.92;1.80;;;;;;;23.00;31.96;96050.47;1850712;77;23303;-61
2021/05/10 10:35:27;;;;;;;4.40;1.60;;;;;;;22.99;31.64;96050.09;1780470;79;23049;-62
2021/05/10 10:38:05;;;;;;;4.55;1.80;;;;;;;23.18;33.50;96050.69;1780605;79;23460;-62
2021/05/10 10:40:42;;;;;;;5.72;1.70;;;;;;;23.23;32.69;96041.84;1780664;79;23526;-62
2021/05/10 10:46:26;;;;;;;2.62;1.80;;;;;;;23.58;32.46;96037.44;1820128;79;22906;-61
2021/05/10 10:49:34;;;;;;;2.15;1.65;;;;;;;23.65;33.80;96035.23;1820185;79;22792;-62
2021/05/10 10:52:23;;;;;;;2.52;1.60;;;;;;;23.77;29.26;96026.89;1780729;79;23483;-61
2021/05/10 10:55:24;;;;;;;3.58;1.87;;;;;;;23.91;30.89;96029.54;1819884;79;22926;-61
2021/05/10 10:58:20;;;;;;;8.18;1.77;;;;;;;23.94;32.22;96024.83;1780694;79;23457;-61
2021/05/10 11:01:13;;;;;;;6.03;1.80;;;;;;;23.87;29.89;96019.45;1802159;79;27915;-60
2021/05/10 11:03:52;;;;;;;2.58;1.60;;;;;;;23.99;30.17;96019.15;1780623;79;23015;-61
2021/05/10 11:06:50;;;;;;;3.92;1.75;;;;;;;24.07;31.36;96012.77;1820198;79;23013;-61
2021/05/10 11:09:49;;;;;;;7.23;1.73;;;;;;;24.21;29.80;96006.94;1804426;79;28380;-62
2021/05/10 11:12:52;;;;;;;2.85;1.60;;;;;;;24.44;31.62;96004.05;1820170;79;22480;-61
2021/05/10 11:15:42;;;;;;;3.20;1.70;;;;;;;24.66;31.27;96000.81;1780654;79;23014;-61
2021/05/10 11:18:49;;;;;;;2.35;1.50;;;;;;;24.80;31.43;96006.14;1780733;79;23018;-61
2021/05/10 11:21:35;;;;;;;4.92;1.80;;;;;;;24.92;30.40;95999.90;1804643;79;27647;-61
2021/05/10 11:24:33;;;;;;;6.25;1.75;;;;;;;24.99;27.73;95989.02;1810780;78;23056;-61
2021/05/10 11:27:30;;;;;;;2.35;1.50;;;;;;;25.08;30.59;95990.73;1824386;77;22854;-61
2021/05/10 11:30:07;;;;;;;2.77;1.70;;;;;;;25.23;31.98;95987.84;1850619;77;23311;-62
2021/05/10 11:32:52;;;;;;;2.98;1.70;;;;;;;25.40;30.92;95984.41;1780095;79;23032;-61
2021/05/10 11:35:30;;;;;;;2.75;1.87;;;;;;;25.46;28.46;95969.98;1780718;79;23036;-62
2021/05/10 11:38:08;;;;;;;4.12;1.55;;;;;;;25.55;28.58;95973.88;1780580;79;23040;-61
2021/05/10 11:40:47;;;;;;;2.52;1.60;;;;;;;25.52;29.87;95967.81;1850723;77;22853;-61
2021/05/10 11:43:24;;;;;;;3.77;1.70;;;;;;;25.63;29.35;95962.52;1820175;79;22868;-61
2021/05/10 11:46:02;;;;;;;3.22;1.50;;;;;;;25.64;25.65;95958.33;1819971;79;23050;-62
2021/05/10 11:48:41;;;;;;;2.83;1.35;;;;;;;25.98;25.37;95954.55;1820177;79;22934;-61
2021/05/10 11:51:21;;;;;;;3.33;1.95;;;;;;;26.29;26.83;95947.69;1820127;79;23337;-62
2021/05/10 11:54:06;;;;;;;4.17;1.80;;;;;;;26.74;27.88;95950.60;1780565;79;23014;-62
2021/05/10 11:56:46;;;;;;;3.55;1.50;;;;;;;27.07;25.25;95942.17;1870511;76;22829;-62
2021/05/10 12:02:27;;;;;;;4.55;1.67;;;;;;;27.85;24.55;95945.08;1804664;79;27626;-62
2021/05/10 12:05:20;;;;;;;2.83;2.05;;;;;;;28.30;21.89;95934.97;1819907;79;22818;-65
2021/05/10 12:07:57;;;;;;;3.00;1.60;;;;;;;28.62;23.67;95925.95;1819921;79;22919;-64
2021/05/10 12:10:38;;;;;;;4.30;1.60;;;;;;;28.83;22.91;95917.84;1796093;77;28597;-62
2021/05/10 12:13:15;;;;;;;3.95;1.70;;;;;;;29.77;22.14;95914.55;1889934;76;22833;-62
2021/05/10 12:16:01;;;;;;;3.10;1.50;;;;;;;29.59;23.70;95912.11;1780696;79;23468;-63
2021/05/10 12:18:40;;;;;;;4.12;1.67;;;;;;;30.13;20.00;95903.52;1824411;77;23427;-63
2021/05/10 12:21:17;;;;;;;3.10;1.50;;;;;;;30.41;21.77;95899.13;1780622;79;23014;-63
2021/05/10 12:24:05;;;;;;;3.05;1.60;;;;;;;30.67;21.97;95900.41;1817626;79;22356;-63
2021/05/10 12:26:46;;;;;;;3.35;1.32;;;;;;;31.08;22.32;95899.75;1824187;77;22885;-63
2021/05/10 12:29:26;;;;;;;2.60;1.40;;;;;;;31.27;20.84;95901.03;1780691;79;23014;-63
2021/05/10 12:32:04;;;;;;;4.50;1.67;;;;;;;31.33;19.76;95899.61;1780686;79;23062;-63
2021/05/10 12:34:42;;;;;;;3.22;1.50;;;;;;;31.35;20.02;95896.20;1850641;77;22854;-63
2021/05/10 12:37:19;;;;;;;2.22;1.10;;;;;;;31.43;19.06;95897.22;1820199;79;23378;-63
2021/05/10 12:40:07;;;;;;;2.20;1.40;;;;;;;31.40;19.53;95889.83;1870427;76;23459;-63
2021/05/10 12:42:46;;;;;;;1.60;1.22;;;;;;;31.34;18.34;95894.49;1802125;79;27904;-63
2021/05/10 12:45:23;;;;;;;3.47;1.27;;;;;;;32.18;18.60;95886.22;1780698;79;23480;-63
2021/05/10 12:48:13;;;;;;;2.27;1.32;;;;;;;31.71;18.32;95882.23;1780524;79;23007;-63
2021/05/10 12:51:06;;;;;;;2.95;1.20;;;;;;;31.70;20.81;95877.77;1780717;79;23022;-63
2021/05/10 12:54:03;;;;;;;4.90;1.40;;;;;;;31.91;19.76;95872.92;1824293;77;22852;-63